| time (UTC) | temp C | wind direction | speed KPH | gust KPH | rain 1hr cm | rain 24hr cm | rain mn cm | humidity % | barometer mb |
| 20260509180054 | 20 | 262 | 14.5 | 22.5 | 0.00 | 0.00 | 0.00 | 34 | 1001.9 |
| 20260509174554 | 20 | 269 | 14.5 | 24.1 | 0.00 | 0.00 | 0.00 | 33 | 1001.9 |
| 20260509173104 | 20 | 252 | 11.3 | 22.5 | 0.00 | 0.00 | 0.00 | 33 | 1002.1 |
| 20260509171606 | 19 | 315 | 12.9 | 32.2 | 0.00 | 0.00 | 0.00 | 34 | 1002.2 |
| 20260509170055 | 18 | 285 | 17.7 | 40.2 | 0.00 | 0.00 | 0.00 | 34 | 1002.3 |
| 20260509164556 | 17 | 253 | 12.9 | 22.5 | 0.00 | 0.00 | 0.00 | 37 | 1002.5 |
| 20260509163059 | 17 | 276 | 6.4 | 20.9 | 0.00 | 0.00 | 0.00 | 38 | 1002.7 |
| 20260509161553 | 16 | 287 | 8.0 | 17.7 | 0.00 | 0.00 | 0.00 | 38 | 1002.8 |
| 20260509160054 | 17 | 292 | 4.8 | 17.7 | 0.00 | 0.00 | 0.00 | 38 | 1003.1 |
| 20260509154552 | 16 | 276 | 4.8 | 11.3 | 0.00 | 0.00 | 0.00 | 37 | 1003.1 |
| 20260509153049 | 17 | 250 | 9.7 | 22.5 | 0.00 | 0.00 | 0.00 | 37 | 1003.0 |
| 20260509151558 | 17 | 249 | 8.0 | 14.5 | 0.00 | 0.00 | 0.00 | 42 | 1002.9 |
| 20260509150054 | 16 | 285 | 4.8 | 14.5 | 0.00 | 0.00 | 0.00 | 45 | 1002.5 |
| 20260509144553 | 16 | 273 | 6.4 | 11.3 | 0.00 | 0.00 | 0.00 | 47 | 1002.1 |
| 20260509143049 | 16 | 285 | 6.4 | 9.7 | 0.00 | 0.00 | 0.00 | 49 | 1002.0 |
| 20260509141554 | 15 | 271 | 4.8 | 9.7 | 0.00 | 0.00 | 0.00 | 53 | 1002.2 |
| 20260509140054 | 15 | 277 | 4.8 | 9.7 | 0.00 | 0.00 | 0.00 | 53 | 1002.0 |
| 20260509134601 | 15 | 257 | 4.8 | 14.5 | 0.00 | 0.00 | 0.00 | 54 | 1001.8 |
| 20260509133053 | 15 | 270 | 9.7 | 16.1 | 0.00 | 0.00 | 0.00 | 55 | 1001.9 |
| 20260509131609 | 14 | 281 | 8.0 | 16.1 | 0.00 | 0.00 | 0.00 | 60 | 1002.0 |
| 20260509130104 | 14 | 280 | 9.7 | 20.9 | 0.00 | 0.00 | 0.00 | 61 | 1001.8 |
| 20260509124551 | 14 | 269 | 3.2 | 14.5 | 0.00 | 0.00 | 0.00 | 66 | 1001.6 |
| 20260509123101 | 13 | 240 | 4.8 | 12.9 | 0.00 | 0.00 | 0.00 | 69 | 1001.6 |
| 20260509121552 | 13 | 229 | 4.8 | 12.9 | 0.00 | 0.00 | 0.00 | 75 | 1001.6 |
| 20260509120051 | 12 | 285 | 6.4 | 11.3 | 0.00 | 0.00 | 0.00 | 78 | 1001.7 |
| 20260509114608 | 12 | 285 | 6.4 | 11.3 | 0.00 | 0.00 | 0.00 | 80 | 1001.5 |
| 20260509113105 | 11 | 253 | 6.4 | 9.7 | 0.00 | 0.00 | 0.00 | 82 | 1001.4 |
| 20260509111552 | 11 | 256 | 4.8 | 9.7 | 0.00 | 0.00 | 0.00 | 83 | 1001.2 |
| 20260509110104 | 11 | 232 | 6.4 | 14.5 | 0.00 | 0.00 | 0.00 | 82 | 1001.3 |
| 20260509104600 | 11 | 266 | 4.8 | 14.5 | 0.00 | 0.00 | 0.00 | 82 | 1000.9 |
| 20260509103054 | 11 | 252 | 6.4 | 16.1 | 0.00 | 0.00 | 0.00 | 81 | 1000.7 |
| 20260509101552 | 12 | 235 | 6.4 | 12.9 | 0.00 | 0.00 | 0.00 | 81 | 1000.5 |
| 20260509100054 | 12 | 250 | 9.7 | 16.1 | 0.00 | 0.00 | 0.00 | 80 | 1000.7 |
| 20260509094610 | 12 | 237 | 6.4 | 17.7 | 0.00 | 0.00 | 0.00 | 79 | 1000.8 |
| 20260509093054 | 12 | 266 | 6.4 | 14.5 | 0.00 | 0.00 | 0.00 | 79 | 1001.2 |
| 20260509091556 | 12 | 259 | 8.0 | 16.1 | 0.00 | 0.00 | 0.00 | 78 | 1001.2 |
| 20260509084600 | 12 | 218 | 9.7 | 20.9 | 0.00 | 0.00 | 0.00 | 78 | 1001.0 |
| 20260509083052 | 12 | 255 | 11.3 | 20.9 | 0.00 | 0.00 | 0.00 | 78 | 1000.9 |
| 20260509081554 | 12 | 262 | 8.0 | 16.1 | 0.00 | 0.00 | 0.00 | 78 | 1001.1 |
| 20260509080053 | 12 | 243 | 11.3 | 17.7 | 0.00 | 0.00 | 0.00 | 77 | 1001.1 |
| 20260509074553 | 12 | 257 | 8.0 | 17.7 | 0.00 | 0.00 | 0.00 | 76 | 1001.2 |
| 20260509073051 | 12 | 235 | 9.7 | 19.3 | 0.00 | 0.00 | 0.00 | 75 | 1001.3 |
| 20260509071551 | 13 | 240 | 8.0 | 19.3 | 0.00 | 0.00 | 0.00 | 73 | 1001.3 |
| 20260509070106 | 13 | 205 | 8.0 | 20.9 | 0.00 | 0.00 | 0.00 | 71 | 1001.4 |
| 20260509064553 | 13 | 273 | 8.0 | 17.7 | 0.00 | 0.00 | 0.00 | 69 | 1001.6 |
| 20260509063052 | 13 | 257 | 9.7 | 22.5 | 0.00 | 0.00 | 0.00 | 67 | 1001.8 |
| 20260509061607 | 13 | 251 | 9.7 | 20.9 | 0.00 | 0.00 | 0.00 | 65 | 1002.0 |
| 20260509060052 | 13 | 250 | 12.9 | 22.5 | 0.00 | 0.00 | 0.00 | 62 | 1002.4 |
| 20260509054616 | 13 | 240 | 11.3 | 24.1 | 0.00 | 0.00 | 0.00 | 60 | 1002.4 |
| 20260509053142 | 13 | 207 | 6.4 | 19.3 | 0.00 | 0.00 | 0.00 | 58 | 1002.6 |
| 20260509051555 | 14 | 253 | 8.0 | 16.1 | 0.00 | 0.00 | 0.00 | 57 | 1002.8 |
| 20260509050056 | 13 | 245 | 4.8 | 11.3 | 0.00 | 0.00 | 0.00 | 62 | 1003.0 |
| 20260509044553 | 12 | 245 | 3.2 | 4.8 | 0.00 | 0.00 | 0.00 | 70 | 1003.0 |
| 20260509043057 | 11 | 240 | 0.0 | 1.6 | 0.00 | 0.00 | 0.00 | 74 | 1002.8 |
| 20260509041554 | 11 | 68 | 0.0 | 1.6 | 0.00 | 0.00 | 0.00 | 73 | 1003.0 |
| 20260509040112 | 12 | 0 | 0.0 | 3.2 | 0.00 | 0.00 | 0.00 | 72 | 1003.1 |
| 20260509034619 | 12 | 0 | 1.6 | 6.4 | 0.00 | 0.00 | 0.00 | 70 | 1003.0 |
| 20260509033055 | 12 | 0 | 0.0 | 4.8 | 0.00 | 0.00 | 0.00 | 70 | 1003.0 |
| 20260509031553 | 12 | 0 | 0.0 | 3.2 | 0.00 | 0.00 | 0.00 | 68 | 1003.0 |
| 20260509030109 | 12 | 0 | 0.0 | 1.6 | 0.00 | 0.00 | 0.00 | 66 | 1003.3 |
| 20260509024552 | 12 | 0 | 0.0 | 1.6 | 0.00 | 0.00 | 0.00 | 64 | 1003.4 |
| 20260509023054 | 12 | 96 | 0.0 | 4.8 | 0.00 | 0.00 | 0.00 | 62 | 1003.5 |
| 20260509021556 | 13 | 0 | 0.0 | 3.2 | 0.00 | 0.00 | 0.00 | 60 | 1003.5 |
| 20260509020052 | 13 | 71 | 0.0 | 1.6 | 0.00 | 0.00 | 0.00 | 59 | 1003.5 |
| 20260509014551 | 13 | 0 | 0.0 | 3.2 | 0.00 | 0.00 | 0.00 | 56 | 1003.7 |
| 20260509013109 | 14 | 0 | 1.6 | 6.4 | 0.00 | 0.00 | 0.00 | 53 | 1003.7 |
| 20260509011608 | 15 | 103 | 1.6 | 8.0 | 0.00 | 0.00 | 0.00 | 51 | 1003.8 |
| 20260509010053 | 16 | 91 | 6.4 | 14.5 | 0.00 | 0.00 | 0.00 | 44 | 1003.8 |
| 20260509004554 | 18 | 0 | 0.0 | 3.2 | 0.00 | 0.00 | 0.00 | 28 | 1003.7 |
| 20260509003113 | 18 | 246 | 1.6 | 6.4 | 0.00 | 0.00 | 0.00 | 26 | 1003.7 |
| 20260509001552 | 18 | 260 | 3.2 | 8.0 | 0.00 | 0.00 | 0.00 | 27 | 1003.7 |
| 20260509000111 | 19 | 240 | 3.2 | 12.9 | 0.00 | 0.00 | 0.00 | 29 | 1003.8 |
| 20260508234553 | 19 | 243 | 1.6 | 8.0 | 0.00 | 0.00 | 0.00 | 29 | 1003.8 |
| 20260508233054 | 19 | 243 | 8.0 | 17.7 | 0.00 | 0.00 | 0.00 | 25 | 1004.0 |
| 20260508231555 | 20 | 284 | 3.2 | 11.3 | 0.00 | 0.00 | 0.00 | 27 | 1004.2 |
| 20260508230055 | 19 | 240 | 6.4 | 14.5 | 0.00 | 0.00 | 0.00 | 25 | 1004.3 |
| 20260508224604 | 19 | 258 | 9.7 | 17.7 | 0.00 | 0.00 | 0.00 | 24 | 1004.4 |
| 20260508223100 | 19 | 253 | 6.4 | 14.5 | 0.00 | 0.00 | 0.00 | 26 | 1004.4 |
| 20260508221601 | 19 | 298 | 8.0 | 22.5 | 0.00 | 0.00 | 0.00 | 24 | 1004.6 |
| 20260508220059 | 19 | 276 | 4.8 | 16.1 | 0.00 | 0.00 | 0.00 | 25 | 1004.7 |
| 20260508214600 | 19 | 290 | 3.2 | 14.5 | 0.00 | 0.00 | 0.00 | 26 | 1004.7 |
| 20260508213113 | 19 | 0 | 8.0 | 14.5 | 0.00 | 0.00 | 0.00 | 23 | 1004.8 |
| 20260508211600 | 19 | 271 | 4.8 | 11.3 | 0.00 | 0.00 | 0.00 | 24 | 1004.9 |
| 20260508210057 | 18 | 249 | 9.7 | 20.9 | 0.00 | 0.00 | 0.00 | 23 | 1005.1 |
| 20260508204603 | 19 | 262 | 14.5 | 29.0 | 0.00 | 0.00 | 0.00 | 22 | 1005.4 |
| 20260508203101 | 19 | 245 | 8.0 | 14.5 | 0.00 | 0.00 | 0.00 | 24 | 1005.6 |
| 20260508201613 | 19 | 225 | 12.9 | 19.3 | 0.00 | 0.00 | 0.00 | 21 | 1005.7 |
| 20260508200109 | 19 | 271 | 3.2 | 19.3 | 0.00 | 0.00 | 0.00 | 20 | 1005.9 |
| 20260508194600 | 19 | 16 | 4.8 | 9.7 | 0.00 | 0.00 | 0.00 | 23 | 1006.1 |
| 20260508193106 | 18 | 221 | 3.2 | 20.9 | 0.00 | 0.00 | 0.00 | 22 | 1006.4 |
| 20260508191555 | 19 | 214 | 3.2 | 12.9 | 0.00 | 0.00 | 0.00 | 23 | 1006.5 |
| 20260508190057 | 18 | 233 | 4.8 | 11.3 | 0.00 | 0.00 | 0.00 | 24 | 1006.8 |
| 20260508184604 | 19 | 219 | 1.6 | 8.0 | 0.00 | 0.00 | 0.00 | 26 | 1006.9 |
| 20260508183105 | 18 | 72 | 4.8 | 16.1 | 0.00 | 0.00 | 0.00 | 21 | 1007.1 |
| 20260508181554 | 19 | 233 | 0.0 | 9.7 | 0.00 | 0.00 | 0.00 | 25 | 1007.3 |